createdAt,value
2023-04-08T00:02:10.491Z,9.50
2023-04-08T00:04:38.107Z,9.50
2023-04-08T00:07:06.137Z,9.50
2023-04-08T00:09:33.410Z,9.40
2023-04-08T00:12:01.344Z,9.40
2023-04-08T00:14:29.135Z,9.40
2023-04-08T00:16:56.813Z,9.40
2023-04-08T00:19:25.315Z,9.30
2023-04-08T00:21:52.651Z,9.20
2023-04-08T00:24:20.247Z,9.20
2023-04-08T00:26:47.494Z,9.20
2023-04-08T00:29:14.842Z,9.20
2023-04-08T00:31:42.182Z,9.20
2023-04-08T00:34:09.675Z,9.30
2023-04-08T00:36:37.055Z,9.30
2023-04-08T00:39:06.839Z,9.30
2023-04-08T00:41:36.098Z,9.20
2023-04-08T00:44:03.578Z,9.30
2023-04-08T00:46:35.611Z,9.30
2023-04-08T00:49:03.166Z,9.30
2023-04-08T00:51:33.878Z,9.30
2023-04-08T00:54:01.198Z,9.20
2023-04-08T00:56:29.021Z,9.30
2023-04-08T00:58:56.358Z,9.30
2023-04-08T01:02:06.835Z,9.30
2023-04-08T01:05:02.668Z,9.30
2023-04-08T01:07:36.756Z,9.30
2023-04-08T01:10:24.240Z,9.20
2023-04-08T01:12:56.771Z,9.10
2023-04-08T01:15:28.018Z,9.00
2023-04-08T01:17:56.848Z,9.00
2023-04-08T01:20:26.360Z,9.00
2023-04-08T01:22:59.361Z,9.00
2023-04-08T01:25:34.413Z,8.90
2023-04-08T01:28:05.650Z,8.80
2023-04-08T01:30:34.536Z,8.80
2023-04-08T01:33:02.885Z,8.80
2023-04-08T01:35:32.234Z,8.70
2023-04-08T01:38:01.384Z,8.70
2023-04-08T01:40:28.998Z,8.60
2023-04-08T01:42:58.954Z,8.50
2023-04-08T01:45:27.661Z,8.40
2023-04-08T01:47:56.482Z,8.40
2023-04-08T01:50:25.159Z,8.50
2023-04-08T01:52:54.542Z,8.50
2023-04-08T01:55:22.873Z,8.60
2023-04-08T01:57:53.538Z,8.70
2023-04-08T02:00:25.891Z,8.60
2023-04-08T02:02:54.745Z,8.60
2023-04-08T02:05:22.186Z,8.50
2023-04-08T02:07:50.004Z,8.60
2023-04-08T02:10:17.419Z,8.60
2023-04-08T02:12:45.841Z,8.60
2023-04-08T02:15:14.354Z,8.60
2023-04-08T02:17:52.763Z,8.40
2023-04-08T02:20:31.109Z,8.30
2023-04-08T02:23:07.602Z,8.20
2023-04-08T02:25:35.960Z,8.20
2023-04-08T02:28:06.059Z,8.10
2023-04-08T02:30:35.680Z,8.10
2023-04-08T02:33:07.914Z,8.20
2023-04-08T02:35:36.829Z,8.20
2023-04-08T02:38:04.104Z,8.30
2023-04-08T02:40:35.404Z,8.40
2023-04-08T02:43:04.139Z,8.40
2023-04-08T02:45:38.650Z,8.40
2023-04-08T02:48:06.467Z,8.40
2023-04-08T02:50:34.057Z,8.30
2023-04-08T02:53:01.486Z,8.30
2023-04-08T02:55:30.934Z,8.30
2023-04-08T02:57:58.303Z,8.40
2023-04-08T03:00:25.614Z,8.40
2023-04-08T03:02:53.140Z,8.40
2023-04-08T03:05:21.687Z,8.40
2023-04-08T03:07:48.884Z,8.40
2023-04-08T03:10:16.280Z,8.40
2023-04-08T03:12:43.570Z,8.50
2023-04-08T03:15:10.903Z,8.40
2023-04-08T03:17:38.379Z,8.60
2023-04-08T03:20:06.896Z,8.50
2023-04-08T03:22:34.499Z,8.60
2023-04-08T03:25:01.821Z,8.60
2023-04-08T03:27:29.208Z,8.60
2023-04-08T03:29:57.838Z,8.60
2023-04-08T03:32:25.582Z,8.70
2023-04-08T03:34:53.468Z,8.70
2023-04-08T03:37:20.798Z,8.70
2023-04-08T03:39:48.016Z,8.80
2023-04-08T03:42:15.484Z,8.80
2023-04-08T03:44:42.680Z,8.80
2023-04-08T03:47:10.143Z,8.80
2023-04-08T03:49:37.354Z,8.80
2023-04-08T03:52:04.863Z,8.90
2023-04-08T03:54:32.091Z,8.90
2023-04-08T03:56:59.348Z,8.90
2023-04-08T03:59:26.731Z,9.00
2023-04-08T04:01:54.046Z,9.00
2023-04-08T04:04:21.845Z,9.00
2023-04-08T04:06:49.126Z,9.00
2023-04-08T04:09:17.091Z,8.90
2023-04-08T04:11:44.361Z,8.90
2023-04-08T04:14:11.696Z,8.90
2023-04-08T04:16:38.946Z,8.90
2023-04-08T04:19:06.285Z,8.80
2023-04-08T04:21:33.479Z,8.70
2023-04-08T04:24:00.707Z,8.60
2023-04-08T04:26:27.948Z,8.60
2023-04-08T04:28:55.219Z,8.60
2023-04-08T04:31:23.968Z,8.60
2023-04-08T04:33:51.259Z,8.70
2023-04-08T04:36:19.549Z,8.70
2023-04-08T04:38:48.345Z,8.80
2023-04-08T04:41:18.068Z,8.80
2023-04-08T04:43:45.675Z,8.80
2023-04-08T04:46:13.063Z,8.80
2023-04-08T04:48:40.636Z,8.90
2023-04-08T04:51:07.914Z,8.90
2023-04-08T04:53:35.403Z,8.90
2023-04-08T04:56:02.693Z,8.90
2023-04-08T04:58:30.647Z,9.00
2023-04-08T05:00:58.213Z,9.00
2023-04-08T05:03:25.469Z,9.00
2023-04-08T05:05:54.155Z,9.00
2023-04-08T05:08:21.785Z,8.90
2023-04-08T05:10:50.616Z,8.90
2023-04-08T05:13:21.129Z,9.00
2023-04-08T05:15:48.483Z,9.10
2023-04-08T05:18:16.105Z,9.20
2023-04-08T05:20:43.486Z,9.10
2023-04-08T05:23:10.913Z,9.00
2023-04-08T05:25:38.199Z,9.00
2023-04-08T05:28:05.633Z,9.10
2023-04-08T05:30:32.897Z,9.00
2023-04-08T05:33:00.930Z,8.90
2023-04-08T05:35:28.988Z,8.90
2023-04-08T05:37:56.285Z,8.90
2023-04-08T05:40:23.736Z,9.00
2023-04-08T05:42:51.069Z,9.10
2023-04-08T05:45:18.303Z,9.20
2023-04-08T05:47:45.647Z,9.30
2023-04-08T05:50:12.918Z,9.30
2023-04-08T05:52:44.772Z,9.40
2023-04-08T05:55:12.919Z,9.50
2023-04-08T05:57:41.102Z,9.60
2023-04-08T06:00:10.056Z,9.70
2023-04-08T06:02:38.515Z,9.70
2023-04-08T06:05:06.548Z,9.80
2023-04-08T06:07:34.961Z,9.80
2023-04-08T06:10:03.175Z,9.90
2023-04-08T06:12:30.610Z,9.90
2023-04-08T06:14:57.878Z,10.00
2023-04-08T06:17:25.260Z,10.10
2023-04-08T06:19:52.579Z,10.20
2023-04-08T06:22:19.819Z,10.30
2023-04-08T06:24:48.620Z,10.40
2023-04-08T06:27:16.396Z,10.50
2023-04-08T06:29:43.682Z,10.60
2023-04-08T06:32:11.369Z,10.70
2023-04-08T06:34:38.848Z,10.90
2023-04-08T06:37:06.490Z,11.20
2023-04-08T06:39:34.174Z,11.20
2023-04-08T06:42:01.662Z,11.30
2023-04-08T06:44:47.724Z,11.50
2023-04-08T06:47:16.490Z,11.60
2023-04-08T06:49:43.808Z,12.00
2023-04-08T06:52:13.091Z,12.10
2023-04-08T06:54:41.806Z,12.40
2023-04-08T06:57:09.146Z,12.40
2023-04-08T06:59:36.468Z,12.60
2023-04-08T07:02:04.187Z,12.90
2023-04-08T07:04:31.522Z,12.70
2023-04-08T07:06:58.842Z,12.60
2023-04-08T07:09:26.221Z,12.40
2023-04-08T07:11:53.581Z,12.50
2023-04-08T07:14:20.860Z,12.40
2023-04-08T07:16:48.147Z,12.40
2023-04-08T07:19:15.887Z,12.50
2023-04-08T07:21:43.386Z,12.60
2023-04-08T07:24:11.030Z,12.70
2023-04-08T07:26:38.765Z,13.00
2023-04-08T07:29:06.085Z,13.20
2023-04-08T07:31:33.351Z,13.00
2023-04-08T07:34:00.672Z,13.70
2023-04-08T07:36:28.122Z,14.70
2023-04-08T07:38:55.449Z,15.10
2023-04-08T07:41:22.674Z,15.40
2023-04-08T07:43:49.950Z,15.20
2023-04-08T07:46:17.286Z,14.90
2023-04-08T07:48:44.615Z,14.90
2023-04-08T07:51:11.994Z,15.00
2023-04-08T07:53:40.369Z,15.00
2023-04-08T07:56:16.189Z,15.60
2023-04-08T07:58:43.848Z,16.10
2023-04-08T08:01:23.062Z,16.60
2023-04-08T08:03:52.649Z,16.90
2023-04-08T08:06:21.125Z,17.00
2023-04-08T08:08:48.523Z,17.30
2023-04-08T08:11:15.822Z,17.40
2023-04-08T08:13:43.167Z,17.60
2023-04-08T08:16:11.700Z,17.90
2023-04-08T08:18:40.833Z,18.10
2023-04-08T08:21:08.812Z,18.30
2023-04-08T08:23:37.385Z,17.80
2023-04-08T08:26:07.747Z,18.10
2023-04-08T08:28:35.268Z,18.50
2023-04-08T08:31:03.585Z,18.60
2023-04-08T08:33:30.836Z,18.30
2023-04-08T08:35:58.561Z,18.40
2023-04-08T08:38:26.080Z,18.60
2023-04-08T08:40:58.039Z,18.50
2023-04-08T08:43:26.055Z,18.50
2023-04-08T08:45:54.009Z,18.90
2023-04-08T08:48:21.588Z,19.30
2023-04-08T08:50:48.841Z,19.20
2023-04-08T08:53:16.116Z,19.40
2023-04-08T08:58:13.666Z,19.20
2023-04-08T09:00:42.436Z,19.00
2023-04-08T09:03:16.167Z,19.10
2023-04-08T09:05:51.162Z,19.10
2023-04-08T09:08:32.039Z,19.50
2023-04-08T09:11:15.811Z,19.90
2023-04-08T09:13:45.563Z,20.00
2023-04-08T09:16:16.585Z,20.20
2023-04-08T09:18:45.987Z,20.20
2023-04-08T09:21:16.815Z,20.90
2023-04-08T09:23:45.450Z,21.10
2023-04-08T09:26:19.356Z,21.00
2023-04-08T09:29:18.419Z,20.50
2023-04-08T09:31:59.654Z,19.80
2023-04-08T09:34:30.791Z,19.60
2023-04-08T09:36:58.343Z,19.90
2023-04-08T09:39:25.728Z,20.00
2023-04-08T09:41:55.820Z,20.00
2023-04-08T09:44:29.135Z,20.20
2023-04-08T09:47:08.531Z,20.50
2023-04-08T09:49:45.894Z,20.90
2023-04-08T09:52:24.924Z,20.90
2023-04-08T09:55:09.598Z,20.90
2023-04-08T09:57:39.515Z,20.80
2023-04-08T10:00:18.111Z,20.80
2023-04-08T10:02:54.531Z,20.70
2023-04-08T10:05:24.472Z,20.70
2023-04-08T10:07:52.570Z,20.80
2023-04-08T10:10:20.917Z,21.10
2023-04-08T10:12:49.189Z,20.70
2023-04-08T10:15:30.989Z,20.30
2023-04-08T10:18:06.973Z,20.10
2023-04-08T10:20:34.421Z,20.50
2023-04-08T10:23:09.148Z,20.70
2023-04-08T10:25:41.484Z,20.70
2023-04-08T10:28:11.892Z,20.50
2023-04-08T10:30:49.063Z,20.00
2023-04-08T10:33:19.124Z,19.90
2023-04-08T10:35:53.323Z,20.00
2023-04-08T10:38:21.565Z,20.10
2023-04-08T10:40:49.918Z,20.00
2023-04-08T10:43:17.357Z,19.80
2023-04-08T10:45:48.609Z,19.90
2023-04-08T10:48:29.357Z,20.40
2023-04-08T10:50:59.483Z,20.80
2023-04-08T10:53:44.838Z,21.10
2023-04-08T10:56:15.408Z,21.00
2023-04-08T10:58:50.755Z,21.20
2023-04-08T11:01:18.954Z,20.70
2023-04-08T11:03:46.568Z,20.20
2023-04-08T11:06:14.065Z,19.70
2023-04-08T11:08:41.577Z,19.50
2023-04-08T11:11:08.962Z,19.30
2023-04-08T11:13:39.466Z,19.20
2023-04-08T11:16:17.753Z,18.90
2023-04-08T11:18:46.189Z,18.80
2023-04-08T11:21:13.520Z,19.00
2023-04-08T11:23:42.730Z,18.80
2023-04-08T11:26:11.256Z,18.60
2023-04-08T11:28:39.059Z,18.40
2023-04-08T11:31:08.663Z,18.30
2023-04-08T11:33:36.348Z,18.30
2023-04-08T11:36:04.763Z,18.30
2023-04-08T11:38:32.276Z,18.20
2023-04-08T11:41:00.375Z,18.00
2023-04-08T11:43:28.673Z,17.90
2023-04-08T11:45:56.056Z,17.90
2023-04-08T11:48:23.798Z,17.70
2023-04-08T11:51:04.618Z,17.60
2023-04-08T11:53:32.000Z,17.60
2023-04-08T11:56:19.057Z,17.80
2023-04-08T11:58:46.668Z,17.80
2023-04-08T12:01:14.399Z,17.90
2023-04-08T12:03:58.949Z,17.80
2023-04-08T12:06:27.639Z,18.00
2023-04-08T12:08:56.466Z,18.00
2023-04-08T12:11:24.504Z,18.20
2023-04-08T12:13:53.013Z,18.10
2023-04-08T12:16:20.835Z,18.10
2023-04-08T12:18:48.718Z,18.10
2023-04-08T12:21:15.992Z,18.20
2023-04-08T12:23:43.195Z,18.30
2023-04-08T12:26:10.602Z,18.40
2023-04-08T12:28:38.255Z,18.50
2023-04-08T12:31:05.862Z,18.70
2023-04-08T12:33:33.141Z,18.60
2023-04-08T12:36:00.655Z,18.50
2023-04-08T12:38:28.125Z,18.60
2023-04-08T12:40:55.972Z,18.70
2023-04-08T12:43:23.739Z,18.80
2023-04-08T12:45:51.937Z,19.10
2023-04-08T12:48:19.558Z,19.30
2023-04-08T12:50:46.895Z,19.40
2023-04-08T12:53:14.163Z,19.60
2023-04-08T12:55:43.153Z,19.60
2023-04-08T12:58:11.772Z,19.40
2023-04-08T13:00:40.157Z,19.20
2023-04-08T13:03:07.562Z,19.00
2023-04-08T13:05:43.145Z,18.90
2023-04-08T13:08:14.424Z,18.70
2023-04-08T13:10:42.472Z,18.60
2023-04-08T13:13:09.986Z,18.80
2023-04-08T13:15:37.927Z,18.70
2023-04-08T13:18:05.334Z,18.90
2023-04-08T13:20:33.476Z,18.80
2023-04-08T13:23:01.087Z,18.90
2023-04-08T13:25:28.585Z,18.90
2023-04-08T13:27:56.082Z,19.00
2023-04-08T13:30:23.366Z,19.00
2023-04-08T13:32:50.804Z,19.10
2023-04-08T13:35:18.216Z,19.10
2023-04-08T13:37:45.582Z,19.20
2023-04-08T13:40:13.253Z,19.20
2023-04-08T13:42:41.545Z,19.10
2023-04-08T13:45:09.337Z,18.90
2023-04-08T13:47:38.008Z,18.90
2023-04-08T13:50:07.399Z,18.90
2023-04-08T13:52:35.412Z,18.90
2023-04-08T13:55:02.699Z,18.80
2023-04-08T13:57:30.634Z,18.90
2023-04-08T13:59:58.042Z,19.00
2023-04-08T14:02:25.632Z,18.90
2023-04-08T14:04:53.417Z,18.90
2023-04-08T14:07:20.832Z,18.90
2023-04-08T14:09:48.100Z,18.70
2023-04-08T14:12:15.440Z,18.70
2023-04-08T14:14:42.647Z,18.70
2023-04-08T14:17:10.056Z,18.70
2023-04-08T14:19:37.427Z,18.80
2023-04-08T14:22:04.731Z,18.90
2023-04-08T14:24:31.927Z,19.00
2023-04-08T14:26:59.148Z,19.00
2023-04-08T14:29:27.672Z,19.00
2023-04-08T14:31:55.054Z,18.80
2023-04-08T14:34:22.236Z,18.50
2023-04-08T14:36:49.530Z,18.50
2023-04-08T14:39:16.728Z,18.30
2023-04-08T14:41:44.024Z,18.30
2023-04-08T14:44:11.222Z,18.30
2023-04-08T14:46:39.624Z,18.30
2023-04-08T14:49:07.144Z,18.30
2023-04-08T14:51:34.485Z,18.30
2023-04-08T14:54:02.063Z,18.10
2023-04-08T14:56:29.323Z,18.00
2023-04-08T14:58:56.742Z,18.00
2023-04-08T15:01:24.017Z,18.00
2023-04-08T15:03:51.450Z,18.10
2023-04-08T15:06:20.729Z,18.10
2023-04-08T15:08:47.960Z,18.10
2023-04-08T15:11:15.504Z,18.00
2023-04-08T15:13:42.722Z,18.10
2023-04-08T15:16:10.130Z,18.00
2023-04-08T15:18:37.495Z,17.90
2023-04-08T15:21:05.010Z,17.70
2023-04-08T15:23:32.262Z,17.70
2023-04-08T15:25:59.512Z,17.60
2023-04-08T15:28:27.317Z,17.60
2023-04-08T15:30:54.569Z,17.50
2023-04-08T15:33:22.012Z,17.60
2023-04-08T15:35:49.471Z,17.50
2023-04-08T15:38:17.413Z,17.40
2023-04-08T15:40:46.741Z,17.40
2023-04-08T15:43:15.231Z,17.30
2023-04-08T15:45:44.211Z,17.40
2023-04-08T15:48:14.240Z,17.40
2023-04-08T15:50:42.097Z,17.40
2023-04-08T15:53:09.499Z,17.30
2023-04-08T15:55:40.895Z,17.30
2023-04-08T15:58:08.362Z,17.30
2023-04-08T16:00:35.679Z,16.80
2023-04-08T16:03:05.370Z,16.20
2023-04-08T16:05:35.801Z,15.90
2023-04-08T16:08:04.463Z,15.10
2023-04-08T16:10:31.802Z,14.50
2023-04-08T16:12:59.416Z,14.20
2023-04-08T16:15:26.723Z,13.90
2023-04-08T16:17:54.371Z,13.70
2023-04-08T16:20:21.656Z,13.60
2023-04-08T16:22:50.091Z,13.40
2023-04-08T16:25:18.027Z,13.40
2023-04-08T16:27:45.303Z,13.30
2023-04-08T16:30:12.666Z,13.40
2023-04-08T16:32:40.363Z,13.20
2023-04-08T16:35:08.072Z,13.10
2023-04-08T16:37:35.564Z,12.80
2023-04-08T16:40:03.704Z,12.90
2023-04-08T16:42:32.815Z,12.80
2023-04-08T16:45:00.309Z,13.00
2023-04-08T16:47:27.599Z,13.10
2023-04-08T16:49:55.082Z,13.30
2023-04-08T16:52:22.337Z,13.30
2023-04-08T16:54:49.609Z,13.50
2023-04-08T16:57:16.863Z,13.50
2023-04-08T16:59:44.096Z,13.70
2023-04-08T17:02:11.908Z,13.80
2023-04-08T17:04:40.579Z,13.90
2023-04-08T17:07:08.467Z,14.00
2023-04-08T17:09:36.290Z,14.00
2023-04-08T17:12:03.536Z,14.00
2023-04-08T17:14:31.185Z,13.80
2023-04-08T17:16:58.642Z,13.60
2023-04-08T17:19:26.048Z,13.60
2023-04-08T17:21:53.350Z,13.60
2023-04-08T17:24:20.628Z,13.70
2023-04-08T17:26:48.109Z,13.80
2023-04-08T17:29:15.306Z,13.70
2023-04-08T17:31:44.163Z,13.70
2023-04-08T17:34:11.550Z,13.60
2023-04-08T17:36:39.667Z,13.60
2023-04-08T17:39:07.105Z,13.70
2023-04-08T17:41:40.424Z,13.70
2023-04-08T17:44:08.670Z,13.80
2023-04-08T17:46:36.261Z,13.80
2023-04-08T17:49:03.509Z,13.80
2023-04-08T17:51:31.956Z,13.70
2023-04-08T17:53:59.403Z,13.70
2023-04-08T17:56:27.863Z,13.80
2023-04-08T17:58:55.473Z,13.80
2023-04-08T18:01:23.019Z,13.80
2023-04-08T18:03:51.706Z,13.80
2023-04-08T18:06:19.421Z,13.80
2023-04-08T18:08:46.687Z,13.80
2023-04-08T18:11:14.052Z,13.70
2023-04-08T18:13:41.328Z,13.70
2023-04-08T18:16:20.398Z,13.70
2023-04-08T18:18:48.461Z,13.80
2023-04-08T18:21:18.200Z,13.80
2023-04-08T18:23:49.304Z,13.70
2023-04-08T18:26:17.205Z,13.70
2023-04-08T18:28:44.572Z,13.60
2023-04-08T18:31:11.939Z,13.70
2023-04-08T18:33:39.371Z,13.60
2023-04-08T18:36:12.474Z,13.50
2023-04-08T18:38:40.849Z,13.40
2023-04-08T18:41:08.356Z,13.30
2023-04-08T18:43:35.775Z,13.30
2023-04-08T18:46:03.400Z,13.20
2023-04-08T18:48:30.784Z,13.20
2023-04-08T18:50:58.582Z,13.20
2023-04-08T18:53:25.962Z,13.10
2023-04-08T18:55:53.440Z,13.20
2023-04-08T18:58:20.800Z,13.30
2023-04-08T19:00:48.102Z,13.20
2023-04-08T19:03:15.617Z,13.20
2023-04-08T19:05:42.952Z,13.20
2023-04-08T19:08:10.409Z,13.30
2023-04-08T19:10:37.648Z,13.30
2023-04-08T19:13:05.552Z,13.30
2023-04-08T19:15:33.026Z,13.40
2023-04-08T19:18:00.683Z,13.40
2023-04-08T19:20:28.596Z,13.40
2023-04-08T19:22:55.815Z,13.30
2023-04-08T19:25:23.143Z,13.20
2023-04-08T19:27:51.156Z,13.20
2023-04-08T19:30:18.517Z,13.20
2023-04-08T19:32:46.868Z,13.10
2023-04-08T19:35:14.222Z,13.20
2023-04-08T19:37:41.865Z,13.10
2023-04-08T19:40:10.014Z,13.10
2023-04-08T19:42:39.549Z,13.10
2023-04-08T19:45:07.897Z,12.90
2023-04-08T19:47:35.846Z,12.70
2023-04-08T19:50:03.358Z,12.70
2023-04-08T19:52:31.750Z,12.70
2023-04-08T19:54:59.072Z,12.70
2023-04-08T19:57:26.791Z,12.60
2023-04-08T19:59:54.848Z,12.30
2023-04-08T20:02:24.503Z,12.20
2023-04-08T20:04:52.012Z,12.00
2023-04-08T20:07:19.484Z,11.80
2023-04-08T20:09:46.828Z,11.70
2023-04-08T20:12:14.310Z,11.60
2023-04-08T20:14:43.200Z,11.60
2023-04-08T20:17:11.478Z,11.70
2023-04-08T20:19:39.216Z,11.80
2023-04-08T20:22:07.223Z,11.80
2023-04-08T20:24:34.702Z,11.70
2023-04-08T20:27:02.199Z,11.80
2023-04-08T20:29:29.984Z,11.90
2023-04-08T20:31:57.714Z,11.80
2023-04-08T20:34:25.281Z,11.70
2023-04-08T20:36:52.926Z,11.50
2023-04-08T20:39:20.484Z,11.40
2023-04-08T20:41:47.749Z,11.30
2023-04-08T20:44:15.858Z,11.40
2023-04-08T20:46:43.260Z,11.50
2023-04-08T20:49:10.768Z,11.60
2023-04-08T20:51:38.443Z,11.70
2023-04-08T20:54:06.327Z,11.80
2023-04-08T20:56:33.935Z,11.90
2023-04-08T20:59:01.331Z,12.00
2023-04-08T21:01:29.399Z,12.00
2023-04-08T21:03:57.136Z,12.00
2023-04-08T21:06:24.628Z,12.00
2023-04-08T21:08:52.389Z,11.90
2023-04-08T21:11:19.872Z,12.00
2023-04-08T21:13:49.088Z,11.90
2023-04-08T21:16:16.907Z,11.90
2023-04-08T21:18:44.855Z,12.00
2023-04-08T21:21:12.246Z,12.00
2023-04-08T21:23:39.927Z,12.00
2023-04-08T21:26:12.387Z,12.10
2023-04-08T21:28:40.897Z,12.20
2023-04-08T21:31:09.658Z,12.20
2023-04-08T21:33:37.233Z,12.20
2023-04-08T21:36:06.426Z,12.20
2023-04-08T21:38:35.142Z,12.20
2023-04-08T21:41:02.872Z,12.10
2023-04-08T21:43:30.158Z,12.20
2023-04-08T21:45:57.727Z,12.10
2023-04-08T21:48:25.447Z,12.20
2023-04-08T21:50:53.667Z,12.20
2023-04-08T21:53:22.628Z,12.20
2023-04-08T21:55:49.984Z,12.20
2023-04-08T21:58:17.901Z,12.10
2023-04-08T22:00:45.218Z,12.10
2023-04-08T22:03:12.623Z,12.00
2023-04-08T22:05:40.013Z,12.10
2023-04-08T22:08:07.265Z,12.10
2023-04-08T22:10:34.515Z,12.10
2023-04-08T22:13:01.766Z,12.10
2023-04-08T22:15:29.057Z,12.10
2023-04-08T22:17:56.274Z,12.20
2023-04-08T22:20:23.551Z,12.20
2023-04-08T22:22:51.138Z,12.20
2023-04-08T22:25:18.926Z,12.30
2023-04-08T22:27:46.096Z,12.20
2023-04-08T22:30:13.929Z,12.30
2023-04-08T22:32:44.386Z,12.30
2023-04-08T22:35:12.035Z,12.20
2023-04-08T22:37:39.445Z,12.30
2023-04-08T22:40:07.707Z,12.30
2023-04-08T22:42:34.961Z,12.30
2023-04-08T22:45:02.206Z,12.30
2023-04-08T22:47:29.505Z,12.30
2023-04-08T22:49:57.304Z,12.40
2023-04-08T22:52:24.698Z,12.30
2023-04-08T22:54:51.867Z,12.20
2023-04-08T22:57:19.115Z,12.20
2023-04-08T22:59:46.383Z,12.20
2023-04-08T23:02:13.733Z,12.10
2023-04-08T23:04:41.071Z,12.00
2023-04-08T23:07:08.320Z,12.00
2023-04-08T23:09:35.581Z,12.00
2023-04-08T23:12:02.938Z,12.00
2023-04-08T23:14:30.275Z,11.90
2023-04-08T23:16:57.451Z,11.80
2023-04-08T23:19:24.669Z,11.90
2023-04-08T23:21:51.924Z,11.80
2023-04-08T23:24:19.304Z,11.80
2023-04-08T23:26:46.788Z,11.80
2023-04-08T23:29:14.397Z,11.90
2023-04-08T23:31:41.823Z,11.80
2023-04-08T23:34:09.076Z,11.90
2023-04-08T23:36:37.288Z,12.00
2023-04-08T23:39:04.630Z,12.00
2023-04-08T23:41:32.024Z,12.10
2023-04-08T23:43:59.253Z,12.10
2023-04-08T23:46:26.584Z,12.10
2023-04-08T23:48:54.126Z,12.10
2023-04-08T23:51:21.747Z,12.10
2023-04-08T23:53:49.080Z,12.10
2023-04-08T23:56:16.281Z,12.20
2023-04-08T23:58:43.501Z,12.20
